Pagrindinis puslapis
METAR-TAF:

METAR-TAF

Oro uostai :

Malaga, Ispanija

platuma: 36-40N, ilguma: 004-29W, Aukštis: 16 m

Dabartinis oras

Ataskaita buvo paskelbta 30 minutes, ne 22:30 UTC
Vėjas 1 kt iš Pietų/Pietvakarių
Temperatūra 17°C
Drėgmė 82%
Slėgis 1018 hPa
Matomumas 10 km arba daugiau
nėra debesų žemiau 1500 m ir nėra kamuolinių lietaus debesų

METAR: LEMG 152230Z 21001KT CAVOK 17/14 Q1018 NOSIG

Laikas: 01:00 (23:00 UTC)

Prognozė

Ataskaita buvo paskelbta 6 valandos ir 0 minutes, ne 17:00 UTC
Prognozė galioja nuo 15 metu 18 UTC su 16 metu 18 UTC
Vėjas 10 kt iš Rytų
Matomumas 10 km arba daugiau
nėra debesų žemiau 1500 m ir nėra kamuolinių lietaus debesų
Tapsmas
nuo 15 metu 20 UTC su 15 metu 23 UTC
Vėjas 6 kt iš Vakarų/Šiaurės Vakarų
Tapsmas
nuo 16 metu 07 UTC su 16 metu 10 UTC
Vėjas 10 kt iš Rytų/Pietryčių
Tapsmas
nuo 16 metu 14 UTC su 16 metu 16 UTC
Vėjas 10 kt iš Vakarų

TAF: LEMG 151700Z 1518/1618 09010KT CAVOK TX28/1615Z TN13/1606Z BECMG 1520/1523 29006KT BECMG 1607/1610 11010KT BECMG 1614/1616 27010KT

Orai ataskaitas ir orų prognozės (METAR, TAF).

turimą stotys yra geltonos ir raudonos taškus žemėlapyje.

Perkelti pele per norėdami pamatyti stoties vardą.

Tada spustelėkite, norėdami matyti oro stebėjimo ir prognozės.

Norėdami pakeisti žemėlapį: spustelėkite ant žalios mygtukų su juodo kryžiaus žemyn,; žalią mygtuką su brūkšneliu, jei norite nutolinti; arba žalių rodyklių gretimoms žemėlapius.


METAR-TAF: